createdAt,value
2017-06-28T00:02:20.958Z,5.70
2017-06-28T00:04:50.413Z,7.20
2017-06-28T00:07:19.963Z,5.37
2017-06-28T00:09:49.409Z,5.13
2017-06-28T00:12:18.666Z,5.40
2017-06-28T00:14:48.177Z,5.00
2017-06-28T00:17:17.618Z,5.27
2017-06-28T00:19:47.081Z,4.53
2017-06-28T00:22:16.546Z,5.73
2017-06-28T00:24:45.985Z,5.57
2017-06-28T00:27:15.790Z,5.40
2017-06-28T00:29:45.234Z,5.00
2017-06-28T00:32:14.747Z,5.40
2017-06-28T00:34:44.205Z,5.27
2017-06-28T00:37:13.657Z,5.60
2017-06-28T00:39:43.125Z,4.50
2017-06-28T00:42:12.584Z,5.03
2017-06-28T00:44:42.072Z,5.00
2017-06-28T00:47:11.338Z,5.93
2017-06-28T00:49:40.805Z,4.90
2017-06-28T00:52:10.241Z,4.90
2017-06-28T00:54:39.691Z,4.90
2017-06-28T00:57:09.148Z,5.20
2017-06-28T00:59:38.933Z,5.07
2017-06-28T01:02:08.396Z,4.97
2017-06-28T01:04:37.844Z,5.03
2017-06-28T01:07:07.585Z,5.50
2017-06-28T01:09:37.061Z,5.17
2017-06-28T01:12:06.512Z,5.30
2017-06-28T01:14:35.965Z,5.20
2017-06-28T01:17:05.435Z,4.73
2017-06-28T01:19:34.976Z,5.00
2017-06-28T01:22:04.697Z,5.37
2017-06-28T01:24:34.258Z,4.82
2017-06-28T01:27:03.989Z,4.62
2017-06-28T01:29:33.723Z,4.72
2017-06-28T01:32:03.196Z,4.53
2017-06-28T01:34:32.724Z,4.33
2017-06-28T01:37:02.448Z,4.80
2017-06-28T01:50:47.683Z,4.80
2017-06-28T01:53:17.404Z,4.55
2017-06-28T01:55:47.157Z,4.68
2017-06-28T01:58:16.902Z,4.15
2017-06-28T02:00:46.769Z,4.72
2017-06-28T02:03:16.516Z,4.62
2017-06-28T02:16:34.581Z,4.93
2017-06-28T02:19:04.318Z,4.32
2017-06-28T02:21:34.064Z,4.93
2017-06-28T02:24:03.810Z,4.30
2017-06-28T02:26:33.557Z,4.95
2017-06-28T02:29:03.294Z,5.03
2017-06-28T02:31:33.024Z,4.10
2017-06-28T02:34:02.761Z,4.82
2017-06-28T02:36:32.520Z,5.32
2017-06-28T02:39:02.261Z,4.35
2017-06-28T02:41:32.002Z,4.80
2017-06-28T02:44:01.737Z,4.30
2017-06-28T02:46:31.449Z,4.65
2017-06-28T02:49:01.226Z,4.43
2017-06-28T02:51:30.965Z,4.78
2017-06-28T02:54:00.706Z,4.47
2017-06-28T02:56:30.153Z,4.40
2017-06-28T02:58:59.892Z,4.53
2017-06-28T03:01:29.621Z,4.72
2017-06-28T03:03:59.377Z,4.30
2017-06-28T03:06:29.108Z,4.28
2017-06-28T03:08:58.660Z,4.90
2017-06-28T03:11:28.401Z,4.12
2017-06-28T03:13:58.137Z,5.43
2017-06-28T03:16:27.908Z,4.55
2017-06-28T03:18:57.630Z,5.47
2017-06-28T03:21:27.364Z,4.82
2017-06-28T03:23:57.104Z,6.00
2017-06-28T03:26:26.839Z,5.00
2017-06-28T03:28:56.575Z,5.25
2017-06-28T03:31:26.328Z,4.87
2017-06-28T03:33:56.065Z,5.70
2017-06-28T03:36:25.807Z,5.28
2017-06-28T03:38:55.553Z,4.70
2017-06-28T03:41:25.291Z,5.30
2017-06-28T03:43:55.046Z,5.15
2017-06-28T03:46:24.788Z,4.87
2017-06-28T03:48:54.505Z,5.10
2017-06-28T03:51:24.274Z,4.57
2017-06-28T03:53:54.014Z,4.07
2017-06-28T03:56:23.749Z,4.50
2017-06-28T03:58:53.497Z,5.55
2017-06-28T04:01:23.242Z,4.95
2017-06-28T04:03:52.681Z,5.20
2017-06-28T04:06:22.187Z,5.53
2017-06-28T04:08:51.641Z,4.57
2017-06-28T04:11:21.104Z,4.80
2017-06-28T04:13:50.543Z,4.93
2017-06-28T04:16:20.036Z,5.20
2017-06-28T04:18:50.249Z,5.50
2017-06-28T04:21:19.688Z,4.57
2017-06-28T04:23:49.129Z,5.80
2017-06-28T04:26:18.673Z,5.27
2017-06-28T04:28:48.112Z,4.50
2017-06-28T04:31:17.574Z,5.37
2017-06-28T04:33:47.025Z,5.20
2017-06-28T04:36:16.473Z,5.50
2017-06-28T04:38:45.944Z,5.00
2017-06-28T04:41:15.418Z,5.53
2017-06-28T04:43:44.908Z,5.33
2017-06-28T04:46:14.408Z,6.20
2017-06-28T04:48:43.868Z,6.00
2017-06-28T04:51:13.330Z,5.80
2017-06-28T04:53:42.782Z,5.80
2017-06-28T04:56:12.235Z,6.23
2017-06-28T04:58:41.682Z,6.47
2017-06-28T05:01:11.233Z,7.37
2017-06-28T05:03:40.672Z,7.60
2017-06-28T05:06:10.131Z,7.30
2017-06-28T05:08:39.569Z,7.00
2017-06-28T05:11:09.024Z,6.43
2017-06-28T05:13:38.473Z,5.83
2017-06-28T05:16:07.938Z,5.40
2017-06-28T05:18:37.402Z,5.60
2017-06-28T05:21:06.878Z,6.53
2017-06-28T05:23:36.325Z,5.90
2017-06-28T05:26:05.933Z,5.47
2017-06-28T05:28:35.393Z,6.37
2017-06-28T05:31:04.828Z,6.50
2017-06-28T05:33:34.299Z,6.70
2017-06-28T05:36:04.526Z,6.37
2017-06-28T05:38:33.997Z,6.70
2017-06-28T05:41:03.441Z,5.13
2017-06-28T05:43:32.929Z,5.80
2017-06-28T05:46:02.410Z,6.20
2017-06-28T05:48:31.887Z,7.47
2017-06-28T05:51:01.371Z,7.03
2017-06-28T05:53:30.833Z,7.53
2017-06-28T05:56:00.288Z,8.23
2017-06-28T05:58:29.754Z,10.00
2017-06-28T06:00:59.226Z,11.40
2017-06-28T06:03:28.696Z,11.00
2017-06-28T06:05:58.178Z,10.83
2017-06-28T06:08:27.637Z,9.73
2017-06-28T06:10:57.098Z,9.43
2017-06-28T06:13:26.547Z,9.80
2017-06-28T06:15:56.078Z,10.40
2017-06-28T06:18:25.521Z,10.87
2017-06-28T06:20:54.986Z,12.30
2017-06-28T06:23:24.457Z,11.60
2017-06-28T06:25:53.915Z,12.80
2017-06-28T06:28:23.379Z,10.10
2017-06-28T06:30:52.855Z,11.00
2017-06-28T06:33:22.305Z,10.07
2017-06-28T06:35:51.760Z,10.80
2017-06-28T06:38:21.224Z,10.03
2017-06-28T06:40:50.710Z,11.23
2017-06-28T06:43:20.189Z,10.57
2017-06-28T06:45:49.649Z,10.87
2017-06-28T06:48:19.121Z,12.23
2017-06-28T06:50:48.594Z,12.47
2017-06-28T06:53:18.083Z,12.20
2017-06-28T06:55:47.536Z,13.77
2017-06-28T06:58:17.021Z,13.20
2017-06-28T07:00:46.489Z,12.80
2017-06-28T07:03:15.941Z,13.47
2017-06-28T07:05:45.397Z,11.33
2017-06-28T07:08:14.882Z,10.60
2017-06-28T07:10:44.330Z,11.40
2017-06-28T07:13:13.800Z,10.40
2017-06-28T07:15:43.269Z,11.30
2017-06-28T07:18:12.761Z,10.07
2017-06-28T07:20:42.218Z,9.60
2017-06-28T07:23:11.687Z,10.20
2017-06-28T07:25:41.141Z,9.70
2017-06-28T07:28:10.584Z,9.97
2017-06-28T07:30:40.048Z,8.07
2017-06-28T07:33:09.503Z,6.90
2017-06-28T07:35:38.978Z,5.77
2017-06-28T07:38:09.182Z,8.60
2017-06-28T07:40:38.631Z,7.63
2017-06-28T07:43:08.096Z,7.00
2017-06-28T07:45:37.540Z,8.37
2017-06-28T07:48:07.035Z,9.40
2017-06-28T07:50:36.485Z,10.87
2017-06-28T07:53:06.029Z,10.60
2017-06-28T07:55:35.464Z,9.53
2017-06-28T07:58:04.922Z,9.00
2017-06-28T08:00:34.367Z,9.23
2017-06-28T08:03:03.818Z,7.63
2017-06-28T08:05:33.290Z,7.40
2017-06-28T08:08:02.745Z,5.97
2017-06-28T08:10:32.209Z,6.00
2017-06-28T08:13:01.780Z,6.90
2017-06-28T08:15:31.235Z,6.37
2017-06-28T08:18:00.681Z,6.87
2017-06-28T08:20:30.124Z,5.67
2017-06-28T08:22:59.577Z,6.33
2017-06-28T08:25:29.029Z,5.90
2017-06-28T08:27:58.499Z,5.97
2017-06-28T08:30:27.955Z,4.70
2017-06-28T08:32:57.382Z,4.70
2017-06-28T08:35:26.844Z,5.33
2017-06-28T08:37:56.310Z,5.20
2017-06-28T08:40:25.757Z,4.80
2017-06-28T08:42:55.212Z,5.00
2017-06-28T08:45:24.693Z,6.00
2017-06-28T08:47:54.180Z,5.90
2017-06-28T08:50:23.673Z,4.90
2017-06-28T08:52:53.125Z,5.40
2017-06-28T08:55:23.442Z,5.10
2017-06-28T08:57:52.719Z,5.50
2017-06-28T09:00:22.189Z,5.87
2017-06-28T09:02:51.633Z,5.50
2017-06-28T09:05:21.127Z,6.20
2017-06-28T09:07:50.577Z,5.73
2017-06-28T09:10:20.075Z,5.13
2017-06-28T09:12:49.521Z,4.57
2017-06-28T09:15:19.059Z,5.50
2017-06-28T09:17:48.515Z,4.60
2017-06-28T09:20:18.029Z,5.27
2017-06-28T09:22:47.474Z,5.27
2017-06-28T09:25:16.963Z,4.93
2017-06-28T09:27:46.433Z,5.20
2017-06-28T09:30:15.909Z,5.10
2017-06-28T09:32:45.354Z,4.80
2017-06-28T09:35:14.852Z,5.83
2017-06-28T09:37:44.305Z,4.27
2017-06-28T09:40:13.792Z,4.80
2017-06-28T09:42:43.220Z,5.07
2017-06-28T09:45:13.559Z,6.03
2017-06-28T09:47:43.009Z,6.20
2017-06-28T09:50:12.476Z,6.97
2017-06-28T09:52:41.916Z,5.13
2017-06-28T09:55:11.423Z,6.57
2017-06-28T09:57:40.897Z,6.57
2017-06-28T10:00:10.380Z,5.90
2017-06-28T10:02:39.873Z,6.30
2017-06-28T10:05:09.392Z,6.60
2017-06-28T10:07:38.853Z,5.40
2017-06-28T10:10:08.355Z,5.47
2017-06-28T10:12:37.787Z,5.37
2017-06-28T10:15:07.288Z,5.40
2017-06-28T10:17:36.733Z,6.00
2017-06-28T10:20:06.239Z,5.47
2017-06-28T10:22:35.706Z,6.10
2017-06-28T10:25:05.185Z,5.47
2017-06-28T10:27:34.716Z,5.73
2017-06-28T10:30:04.220Z,5.37
2017-06-28T10:32:33.692Z,6.07
2017-06-28T10:35:03.260Z,5.90
2017-06-28T10:37:32.806Z,5.93
2017-06-28T10:40:02.394Z,5.70
2017-06-28T10:42:31.833Z,5.97
2017-06-28T10:45:01.336Z,6.37
2017-06-28T10:47:30.782Z,6.37
2017-06-28T10:50:00.232Z,6.30
2017-06-28T10:52:29.841Z,6.50
2017-06-28T10:54:59.314Z,5.40
2017-06-28T10:57:28.761Z,6.60
2017-06-28T10:59:58.214Z,6.50
2017-06-28T11:02:27.695Z,5.87
2017-06-28T11:04:57.150Z,6.23
2017-06-28T11:07:26.653Z,6.10
2017-06-28T11:09:56.119Z,6.87
2017-06-28T11:12:25.576Z,6.73
2017-06-28T11:14:55.043Z,6.53
2017-06-28T11:17:24.489Z,6.27
2017-06-28T11:19:53.946Z,6.03
2017-06-28T11:22:23.393Z,6.20
2017-06-28T11:24:52.856Z,6.40
2017-06-28T11:27:22.288Z,6.20
2017-06-28T11:29:51.762Z,5.90
2017-06-28T11:32:21.189Z,6.33
2017-06-28T11:34:50.662Z,5.40
2017-06-28T11:37:20.132Z,5.83
2017-06-28T11:39:49.593Z,6.30
2017-06-28T11:42:19.121Z,6.10
2017-06-28T11:44:48.653Z,6.10
2017-06-28T11:47:18.142Z,6.23
2017-06-28T11:49:47.612Z,6.20
2017-06-28T11:52:17.064Z,5.30
2017-06-28T11:54:46.584Z,7.10
2017-06-28T11:57:16.026Z,6.23
2017-06-28T11:59:45.494Z,5.97
2017-06-28T12:02:15.045Z,6.60
2017-06-28T12:04:44.509Z,5.97
2017-06-28T12:07:13.977Z,6.73
2017-06-28T12:09:43.433Z,5.60
2017-06-28T12:12:12.873Z,6.30
2017-06-28T12:14:42.514Z,6.70
2017-06-28T12:17:11.952Z,6.50
2017-06-28T12:19:41.212Z,5.63
2017-06-28T12:22:10.685Z,6.77
2017-06-28T12:24:40.154Z,5.60
2017-06-28T12:27:09.629Z,5.40
2017-06-28T12:29:39.046Z,5.57
2017-06-28T12:32:08.510Z,4.87
2017-06-28T12:34:37.966Z,5.23
2017-06-28T12:37:07.462Z,4.73
2017-06-28T12:39:36.897Z,5.53
2017-06-28T12:42:06.343Z,5.27
2017-06-28T12:44:35.786Z,4.50
2017-06-28T12:47:05.222Z,5.27
2017-06-28T12:49:34.674Z,4.70
2017-06-28T12:52:04.124Z,4.63
2017-06-28T12:54:33.562Z,4.40
2017-06-28T12:57:03.010Z,4.30
2017-06-28T12:59:32.453Z,3.90
2017-06-28T13:02:01.918Z,4.00
2017-06-28T13:04:31.391Z,3.90
2017-06-28T13:07:00.840Z,3.50
2017-06-28T13:09:30.290Z,4.10
2017-06-28T13:11:59.740Z,3.97
2017-06-28T13:14:29.196Z,3.93
2017-06-28T13:16:58.673Z,4.17
2017-06-28T13:19:28.178Z,3.83
2017-06-28T13:21:57.628Z,3.50
2017-06-28T13:24:27.077Z,3.77
2017-06-28T13:26:56.552Z,3.97
2017-06-28T13:29:25.818Z,4.10
2017-06-28T13:31:55.266Z,3.57
2017-06-28T13:34:24.791Z,3.80
2017-06-28T13:36:54.252Z,3.57
2017-06-28T13:39:23.713Z,3.83
2017-06-28T13:41:53.170Z,3.90
2017-06-28T13:44:23.461Z,3.63
2017-06-28T13:46:52.909Z,3.37
2017-06-28T13:49:22.347Z,3.80
2017-06-28T13:51:51.824Z,3.30
2017-06-28T13:54:21.276Z,3.47
2017-06-28T13:56:50.733Z,3.27
2017-06-28T13:59:20.189Z,3.63
2017-06-28T14:01:49.630Z,3.07
2017-06-28T14:04:19.079Z,3.30
2017-06-28T14:06:48.541Z,3.37
2017-06-28T14:09:17.984Z,3.63
2017-06-28T14:11:47.447Z,3.23
2017-06-28T14:14:16.893Z,3.60
2017-06-28T14:16:46.348Z,3.50
2017-06-28T14:19:15.781Z,3.40
2017-06-28T14:21:45.243Z,3.50
2017-06-28T14:24:14.756Z,3.33
2017-06-28T14:26:44.280Z,3.73
2017-06-28T14:29:13.738Z,3.17
2017-06-28T14:31:43.214Z,4.07
2017-06-28T14:34:12.677Z,3.23
2017-06-28T14:36:42.145Z,3.60
2017-06-28T14:39:11.595Z,3.53
2017-06-28T14:41:41.043Z,3.57
2017-06-28T14:44:10.493Z,3.90
2017-06-28T14:46:39.939Z,3.10
2017-06-28T14:49:09.378Z,3.00
2017-06-28T14:51:38.842Z,3.67
2017-06-28T14:54:08.289Z,3.33
2017-06-28T14:56:37.784Z,3.73
2017-06-28T14:59:07.254Z,3.50
2017-06-28T15:01:37.007Z,3.60
2017-06-28T15:04:06.478Z,3.67
2017-06-28T15:06:35.951Z,4.03
2017-06-28T15:09:04.813Z,3.50
2017-06-28T15:11:34.942Z,4.03
2017-06-28T15:14:06.414Z,3.93
2017-06-28T15:16:35.953Z,3.30
2017-06-28T15:19:05.653Z,3.47
2017-06-28T15:21:35.497Z,3.97
2017-06-28T15:24:05.153Z,4.23
2017-06-28T15:26:35.048Z,3.90
2017-06-28T15:29:04.574Z,3.80
2017-06-28T15:31:34.008Z,4.07
2017-06-28T15:34:03.482Z,3.70
2017-06-28T15:36:32.959Z,4.70
2017-06-28T15:39:02.694Z,3.87
2017-06-28T15:41:31.976Z,3.50
2017-06-28T15:44:01.432Z,3.97
2017-06-28T15:46:30.857Z,4.47
2017-06-28T15:49:00.334Z,3.50
2017-06-28T15:51:29.797Z,3.60
2017-06-28T15:54:10.510Z,4.13
2017-06-28T15:56:47.291Z,4.20
2017-06-28T15:59:16.737Z,3.83
2017-06-28T16:01:46.197Z,4.07
2017-06-28T16:04:15.666Z,4.50
2017-06-28T16:06:45.109Z,4.10
2017-06-28T16:09:14.566Z,4.40
2017-06-28T16:11:44.002Z,4.30
2017-06-28T16:14:13.488Z,4.60
2017-06-28T16:16:44.048Z,4.63
2017-06-28T16:19:13.485Z,4.00
2017-06-28T16:21:42.932Z,4.60
2017-06-28T16:24:12.411Z,4.80
2017-06-28T16:26:41.876Z,4.70
2017-06-28T16:29:11.273Z,4.70
2017-06-28T16:31:40.733Z,4.43
2017-06-28T16:34:10.197Z,4.40
2017-06-28T16:36:39.665Z,5.00
2017-06-28T16:39:09.138Z,5.57
2017-06-28T16:41:38.667Z,4.73
2017-06-28T16:44:08.094Z,5.07
2017-06-28T16:46:37.550Z,5.50
2017-06-28T16:49:07.035Z,5.30
2017-06-28T16:51:36.554Z,5.43
2017-06-28T16:54:05.992Z,5.60
2017-06-28T16:56:35.442Z,5.23
2017-06-28T16:59:04.718Z,6.30
2017-06-28T17:01:34.198Z,5.70
2017-06-28T17:04:03.650Z,5.30
2017-06-28T17:06:33.109Z,5.40
2017-06-28T17:09:02.397Z,4.50
2017-06-28T17:11:31.841Z,4.93
2017-06-28T17:14:01.299Z,5.40
2017-06-28T17:16:30.820Z,5.20
2017-06-28T17:19:00.280Z,5.50
2017-06-28T17:21:29.730Z,5.37
2017-06-28T17:23:59.194Z,6.40
2017-06-28T17:26:28.646Z,6.60
2017-06-28T17:28:58.101Z,5.80
2017-06-28T17:31:27.646Z,5.87
2017-06-28T17:33:57.086Z,6.73
2017-06-28T17:36:26.562Z,6.50
2017-06-28T17:38:56.025Z,6.63
2017-06-28T17:41:25.513Z,6.67
2017-06-28T17:43:54.813Z,7.90
2017-06-28T17:46:24.285Z,6.60
2017-06-28T17:48:53.766Z,7.07
2017-06-28T17:51:23.218Z,6.70
2017-06-28T17:53:52.670Z,6.20
2017-06-28T17:56:22.146Z,6.53
2017-06-28T17:58:51.649Z,6.70
2017-06-28T18:01:21.101Z,6.50
2017-06-28T18:03:50.357Z,5.67
2017-06-28T18:06:19.813Z,6.27
2017-06-28T18:08:49.062Z,7.10
2017-06-28T18:11:18.533Z,7.80
2017-06-28T18:13:47.989Z,7.23
2017-06-28T18:16:17.443Z,9.90
2017-06-28T18:18:46.817Z,10.47
2017-06-28T18:21:16.283Z,12.70
2017-06-28T18:23:45.741Z,7.90
2017-06-28T18:26:15.225Z,10.57
2017-06-28T18:28:44.718Z,11.70
2017-06-28T18:31:14.161Z,9.43
2017-06-28T18:33:43.448Z,7.30
2017-06-28T18:36:12.688Z,8.13
2017-06-28T18:38:42.150Z,6.93
2017-06-28T18:41:11.615Z,7.60
2017-06-28T18:43:41.083Z,7.70
2017-06-28T18:46:10.541Z,6.60
2017-06-28T18:48:40.005Z,6.40
2017-06-28T18:51:09.433Z,5.90
2017-06-28T18:53:38.887Z,5.67
2017-06-28T18:56:08.354Z,5.17
2017-06-28T18:58:37.817Z,6.30
2017-06-28T19:01:07.288Z,5.27
2017-06-28T19:03:36.727Z,5.67
2017-06-28T19:06:06.194Z,6.30
2017-06-28T19:08:35.626Z,5.27
2017-06-28T19:11:05.096Z,5.33
2017-06-28T19:13:34.559Z,4.70
2017-06-28T19:16:04.013Z,6.00
2017-06-28T19:18:33.497Z,5.17
2017-06-28T19:21:02.930Z,4.93
2017-06-28T19:23:32.395Z,5.83
2017-06-28T19:26:01.832Z,4.47
2017-06-28T19:28:31.309Z,4.33
2017-06-28T19:31:00.638Z,4.90
2017-06-28T19:33:30.094Z,4.20
2017-06-28T19:35:59.546Z,4.47
2017-06-28T19:38:29.054Z,4.63
2017-06-28T19:40:58.288Z,4.70
2017-06-28T19:43:27.853Z,4.40
2017-06-28T19:45:57.287Z,4.67
2017-06-28T19:48:27.242Z,4.07
2017-06-28T19:50:57.094Z,3.93
2017-06-28T19:53:27.414Z,3.90
2017-06-28T19:55:57.744Z,3.13
2017-06-28T19:58:27.453Z,3.10
2017-06-28T20:00:57.219Z,2.87
2017-06-28T20:03:26.785Z,2.30
2017-06-28T20:05:56.428Z,2.90
2017-06-28T20:08:26.340Z,6.40
2017-06-28T20:10:56.487Z,2.40
2017-06-28T20:13:26.179Z,2.60
2017-06-28T20:15:55.857Z,2.20
2017-06-28T20:18:25.492Z,2.57
2017-06-28T20:20:55.350Z,2.30
2017-06-28T20:23:25.030Z,2.43
2017-06-28T20:25:55.506Z,2.43
2017-06-28T20:28:25.253Z,2.20
2017-06-28T20:30:55.093Z,1.83
2017-06-28T20:33:24.666Z,2.20
2017-06-28T20:35:55.298Z,2.00
2017-06-28T20:38:25.403Z,2.57
2017-06-28T20:40:54.987Z,1.97
2017-06-28T20:43:24.893Z,2.10
2017-06-28T20:45:54.825Z,1.90
2017-06-28T20:48:24.378Z,2.60
2017-06-28T20:50:53.741Z,2.50
2017-06-28T20:53:23.332Z,2.20
2017-06-28T20:55:53.338Z,2.37
2017-06-28T20:58:23.233Z,2.10
2017-06-28T21:00:53.728Z,2.50
2017-06-28T21:03:23.656Z,2.20
2017-06-28T21:05:53.385Z,2.40
2017-06-28T21:08:23.107Z,2.30
2017-06-28T21:10:52.820Z,3.40
2017-06-28T21:13:22.913Z,2.53
2017-06-28T21:15:52.597Z,3.10
2017-06-28T21:18:22.590Z,3.80
2017-06-28T21:20:52.249Z,3.30
2017-06-28T21:23:22.250Z,4.57
2017-06-28T21:25:51.834Z,3.00
2017-06-28T21:28:21.732Z,2.43
2017-06-28T21:30:51.240Z,2.50
2017-06-28T21:33:20.939Z,2.40
2017-06-28T21:35:50.404Z,2.30
2017-06-28T21:38:19.972Z,2.80
2017-06-28T21:40:49.465Z,2.60
2017-06-28T21:43:18.908Z,2.37
2017-06-28T21:45:48.370Z,2.50
2017-06-28T21:48:17.854Z,2.50
2017-06-28T21:50:47.314Z,2.30
2017-06-28T21:53:16.758Z,2.67
2017-06-28T21:55:46.241Z,2.60
2017-06-28T21:58:15.818Z,2.73
2017-06-28T22:00:45.340Z,3.93
2017-06-28T22:03:14.789Z,4.60
2017-06-28T22:05:44.262Z,5.50
2017-06-28T22:08:13.721Z,6.13
2017-06-28T22:10:43.167Z,5.67
2017-06-28T22:13:12.625Z,5.00
2017-06-28T22:15:41.870Z,4.30
2017-06-28T22:18:10.723Z,4.43
2017-06-28T22:20:39.380Z,4.90
2017-06-28T22:23:08.704Z,3.80
2017-06-28T22:25:38.155Z,3.80
2017-06-28T22:28:07.886Z,4.90
2017-06-28T22:30:37.328Z,5.07
2017-06-28T22:33:06.600Z,4.57
2017-06-28T22:35:36.063Z,4.30
2017-06-28T22:38:05.513Z,4.70
2017-06-28T22:40:34.769Z,5.07
2017-06-28T22:43:04.229Z,5.00
2017-06-28T22:45:33.670Z,4.70
2017-06-28T22:48:03.113Z,4.60
2017-06-28T22:50:32.956Z,4.60
2017-06-28T22:53:02.386Z,3.97
2017-06-28T22:55:31.825Z,4.17
2017-06-28T22:58:01.329Z,4.00
2017-06-28T23:00:30.777Z,4.87
2017-06-28T23:03:00.242Z,7.70
2017-06-28T23:05:29.694Z,7.50
2017-06-28T23:07:59.165Z,4.80
2017-06-28T23:10:28.609Z,6.13
2017-06-28T23:12:57.869Z,4.90
2017-06-28T23:15:27.115Z,4.33
2017-06-28T23:17:56.617Z,3.83
2017-06-28T23:20:26.048Z,4.70
2017-06-28T23:22:55.505Z,4.63
2017-06-28T23:25:24.978Z,5.10
2017-06-28T23:27:54.441Z,4.40
2017-06-28T23:30:23.973Z,5.50
2017-06-28T23:32:53.234Z,4.03
2017-06-28T23:35:22.755Z,4.73
2017-06-28T23:37:52.207Z,3.83
2017-06-28T23:40:21.718Z,3.50
2017-06-28T23:42:51.181Z,3.77
2017-06-28T23:45:20.662Z,4.40
2017-06-28T23:47:50.122Z,4.00
2017-06-28T23:50:19.616Z,4.43
2017-06-28T23:52:49.068Z,3.70
2017-06-28T23:55:18.553Z,4.43
2017-06-28T23:57:48.002Z,4.47
